Ballycanew, Ireland
Current Conditions -  °F | °C
As of 7:00 PM on Thursday 30 Oct 2014 (Local Time) from EIWF Reporting Station
Haze Haze  
Wind Chill: 57°   Ceiling: 200
Heat Index: 57°   Visibility: 3mi
Dew Point: 57°   Wind: 18mph
Humidity: 100%   Direction: 210°SSW
Pressure: 29.85"   Gusts: NA
Location:  52.61°N, 6.31°W
Report Text: EIWF 301900Z 21016KT 5000 BR BKN002 14/14 Q1011 R21/2/////
Loading
Personal Weather Stations






























Interactive Weather Map
Tropical Storm Tracking
New forecast layout! Learn more

10-Day Weather Forecast

Advertisements
Track Severe Weather on mobile